Krymsk, Russia
Current Conditions -  °F | °C
As of 1:00 AM on Friday 19 Dec 2014 (Local Time) from URKA Reporting Station
Broken Clouds Broken Clouds  
Wind Chill: 50°   Ceiling: 12000
Heat Index: 50°   Visibility: 6mi
Dew Point: 45°   Wind: 7mph
Humidity: 82%   Direction: 200°SSW
Pressure: 29.97"   Gusts: NA
Location:  44.92°N, 37.98°E
Report Text: URKA 182200Z 20003MPS 9999 SCT042 BKN120 10/07 Q1015 RMKQFE757/1010
Loading
Personal Weather Stations






























Interactive Weather Map New forecast layout! Learn more

10-Day Weather Forecast

Advertisements
Track Severe Weather on mobile